< < Back
Terminal Aerodrome Forecast


Current Version              Previous Versions:   1  2  3  4  5  6  7  8  9  

Terminal Aerodrome Forecast

900
FTUS42 KFFC 260758 AAA
TAFATL
TAF AMD
KATL 260758Z 2608/2712 17004KT P6SM BKN120 BKN250
     FM261500 22007KT P6SM SCT050 SCT250
     FM270100 17004KT P6SM SCT250=

Latest METAR

550
SAUS70 KWBC 260800 RRD
MTRATL
METAR KATL 260752Z 00000KT 10SM BKN140 BKN250 22/14 A3015 RMK AO2 SLP200
T02170144


USA.gov is the U.S. government's official web portal to all federal, state and local government web resources and services.